createdAt,value
2023-02-08T00:00:48.708Z,1033.43
2023-02-08T00:01:48.717Z,1033.49
2023-02-08T00:02:48.686Z,1033.44
2023-02-08T00:03:48.682Z,1033.47
2023-02-08T00:04:48.660Z,1033.45
2023-02-08T00:05:48.677Z,1033.47
2023-02-08T00:06:48.649Z,1033.43
2023-02-08T00:07:48.606Z,1033.45
2023-02-08T00:08:48.612Z,1033.47
2023-02-08T00:09:48.598Z,1033.45
2023-02-08T00:10:48.591Z,1033.42
2023-02-08T00:11:48.622Z,1033.43
2023-02-08T00:12:48.554Z,1033.42
2023-02-08T00:13:48.552Z,1033.41
2023-02-08T00:14:48.549Z,1033.40
2023-02-08T00:15:48.595Z,1033.39
2023-02-08T00:16:48.529Z,1033.36
2023-02-08T00:17:48.526Z,1033.36
2023-02-08T00:18:48.493Z,1033.34
2023-02-08T00:19:48.479Z,1033.30
2023-02-08T00:20:48.465Z,1033.33
2023-02-08T00:21:48.465Z,1033.33
2023-02-08T00:22:48.447Z,1033.34
2023-02-08T00:23:48.428Z,1033.34
2023-02-08T00:24:48.418Z,1033.30
2023-02-08T00:25:48.408Z,1033.30
2023-02-08T00:26:48.423Z,1033.31
2023-02-08T00:27:48.525Z,1033.29
2023-02-08T00:28:48.399Z,1033.27
2023-02-08T00:29:48.380Z,1033.30
2023-02-08T00:30:48.384Z,1033.28
2023-02-08T00:31:48.363Z,1033.28
2023-02-08T00:32:48.339Z,1033.29
2023-02-08T00:33:48.351Z,1033.27
2023-02-08T00:34:48.312Z,1033.22
2023-02-08T00:35:48.291Z,1033.22
2023-02-08T00:36:48.322Z,1033.25
2023-02-08T00:37:48.278Z,1033.23
2023-02-08T00:38:48.258Z,1033.24
2023-02-08T00:39:48.263Z,1033.21
2023-02-08T00:40:48.234Z,1033.24
2023-02-08T00:41:48.243Z,1033.20
2023-02-08T00:42:48.216Z,1033.16
2023-02-08T00:43:48.209Z,1033.17
2023-02-08T00:44:48.203Z,1033.18
2023-02-08T00:45:48.175Z,1033.22
2023-02-08T00:46:48.202Z,1033.19
2023-02-08T00:47:48.166Z,1033.16
2023-02-08T00:48:48.159Z,1033.22
2023-02-08T00:49:48.163Z,1033.18
2023-02-08T00:50:48.133Z,1033.20
2023-02-08T00:51:48.122Z,1033.16
2023-02-08T00:52:48.120Z,1033.17
2023-02-08T00:53:48.104Z,1033.17
2023-02-08T00:54:48.095Z,1033.20
2023-02-08T00:55:48.075Z,1033.17
2023-02-08T00:56:48.070Z,1033.22
2023-02-08T00:57:48.072Z,1033.22
2023-02-08T00:58:48.038Z,1033.19
2023-02-08T00:59:48.031Z,1033.15
2023-02-08T01:00:48.072Z,1033.15
2023-02-08T01:01:48.014Z,1033.15
2023-02-08T01:02:48.000Z,1033.13
2023-02-08T01:03:47.976Z,1033.12
2023-02-08T01:04:47.967Z,1033.11
2023-02-08T01:05:47.973Z,1033.09
2023-02-08T01:06:47.966Z,1033.11
2023-02-08T01:07:47.945Z,1033.11
2023-02-08T01:08:47.935Z,1033.12
2023-02-08T01:09:47.923Z,1033.12
2023-02-08T01:11:53.693Z,1033.14
2023-02-08T01:13:24.599Z,1033.12
2023-02-08T01:15:17.569Z,1033.16
2023-02-08T01:17:08.720Z,1033.16
2023-02-08T01:19:06.286Z,1033.11
2023-02-08T01:21:05.005Z,1033.05
2023-02-08T01:22:48.868Z,1033.03
2023-02-08T01:24:14.617Z,1033.10
2023-02-08T01:25:33.925Z,1033.11
2023-02-08T01:27:47.407Z,1033.13
2023-02-08T01:33:13.968Z,1033.14
2023-02-08T01:34:14.282Z,1033.13
2023-02-08T01:35:31.448Z,1033.16
2023-02-08T01:36:42.059Z,1033.15
2023-02-08T01:39:30.117Z,1033.13
2023-02-08T01:42:16.357Z,1033.09
2023-02-08T01:45:01.167Z,1033.06
2023-02-08T01:47:33.499Z,1033.04
2023-02-08T01:50:06.486Z,1033.04
2023-02-08T01:52:41.252Z,1033.00
2023-02-08T01:55:16.025Z,1033.06
2023-02-08T01:58:00.182Z,1033.00
2023-02-08T02:00:42.763Z,1032.99
2023-02-08T02:03:17.627Z,1032.98
2023-02-08T02:05:42.688Z,1032.96
2023-02-08T02:08:08.391Z,1032.96
2023-02-08T02:10:29.815Z,1032.98
2023-02-08T02:13:26.687Z,1032.97
2023-02-08T02:16:24.604Z,1033.01
2023-02-08T02:19:30.494Z,1032.99
2023-02-08T02:22:43.521Z,1033.02
2023-02-08T02:25:53.358Z,1033.02
2023-02-08T02:29:01.772Z,1032.98
2023-02-08T02:32:20.511Z,1033.00
2023-02-08T02:35:52.871Z,1032.99
2023-02-08T02:39:32.217Z,1033.01
2023-02-08T06:57:33.050Z,1033.03
2023-02-08T06:58:33.022Z,1033.01
2023-02-08T06:59:32.995Z,1033.03
2023-02-08T07:00:33.003Z,1033.06
2023-02-08T07:01:33.026Z,1033.03
2023-02-08T07:02:33.003Z,1033.01
2023-02-08T07:03:32.983Z,1033.01
2023-02-08T07:04:32.957Z,1032.99
2023-02-08T07:05:32.943Z,1032.95
2023-02-08T07:06:32.939Z,1032.93
2023-02-08T07:07:32.915Z,1032.91
2023-02-08T07:08:32.918Z,1032.91
2023-02-08T07:09:32.902Z,1032.91
2023-02-08T07:10:32.885Z,1032.95
2023-02-08T07:11:32.871Z,1032.92
2023-02-08T07:12:32.870Z,1032.84
2023-02-08T07:13:32.880Z,1032.83
2023-02-08T07:14:32.875Z,1032.83
2023-02-08T07:15:32.838Z,1032.80
2023-02-08T07:16:32.886Z,1032.80
2023-02-08T07:17:32.799Z,1032.79
2023-02-08T07:18:32.848Z,1032.76
2023-02-08T07:19:32.790Z,1032.74
2023-02-08T07:20:32.771Z,1032.72
2023-02-08T07:21:32.753Z,1032.77
2023-02-08T07:22:32.748Z,1032.72
2023-02-08T07:23:32.738Z,1032.74
2023-02-08T07:24:32.743Z,1032.69
2023-02-08T07:25:32.712Z,1032.69
2023-02-08T07:26:32.707Z,1032.67
2023-02-08T07:27:32.715Z,1032.67
2023-02-08T07:28:32.712Z,1032.66
2023-02-08T07:29:32.716Z,1032.67
2023-02-08T07:30:32.713Z,1032.67
2023-02-08T07:31:32.674Z,1032.71
2023-02-08T07:32:34.774Z,1032.72
2023-02-08T07:33:32.654Z,1032.69
2023-02-08T07:34:32.627Z,1032.66
2023-02-08T07:35:32.617Z,1032.72
2023-02-08T07:36:32.613Z,1032.68
2023-02-08T07:37:32.596Z,1032.67
2023-02-08T07:38:32.593Z,1032.64
2023-02-08T07:39:32.565Z,1032.66
2023-02-08T07:40:32.565Z,1032.63
2023-02-08T07:41:32.549Z,1032.67
2023-02-08T07:42:32.532Z,1032.71
2023-02-08T07:43:32.517Z,1032.68
2023-02-08T07:44:32.542Z,1032.67
2023-02-08T07:45:32.527Z,1032.71
2023-02-08T07:46:32.503Z,1032.74
2023-02-08T07:47:32.483Z,1032.67
2023-02-08T07:48:32.518Z,1032.69
2023-02-08T07:49:32.469Z,1032.62
2023-02-08T07:50:32.445Z,1032.65
2023-02-08T07:51:32.430Z,1032.62
2023-02-08T07:52:32.421Z,1032.59
2023-02-08T07:53:32.418Z,1032.59
2023-02-08T07:54:32.412Z,1032.62
2023-02-08T07:55:32.398Z,1032.61
2023-02-08T07:56:32.376Z,1032.65
2023-02-08T07:57:32.363Z,1032.63
2023-02-08T07:58:32.357Z,1032.63
2023-02-08T07:59:32.357Z,1032.66
2023-02-08T08:00:32.354Z,1032.59
2023-02-08T08:01:32.372Z,1032.58
2023-02-08T08:02:32.311Z,1032.57
2023-02-08T08:03:32.298Z,1032.61
2023-02-08T08:04:32.291Z,1032.54
2023-02-08T08:05:32.307Z,1032.57
2023-02-08T08:06:32.281Z,1032.56
2023-02-08T08:07:32.268Z,1032.54
2023-02-08T08:08:32.243Z,1032.54
2023-02-08T08:09:32.238Z,1032.51
2023-02-08T08:10:32.263Z,1032.48
2023-02-08T08:11:32.232Z,1032.50
2023-02-08T08:12:32.224Z,1032.51
2023-02-08T08:13:32.200Z,1032.53
2023-02-08T08:14:32.184Z,1032.54
2023-02-08T08:15:32.205Z,1032.51
2023-02-08T08:16:32.184Z,1032.50
2023-02-08T08:17:32.180Z,1032.50
2023-02-08T08:18:32.148Z,1032.53
2023-02-08T08:19:32.118Z,1032.49
2023-02-08T08:20:32.132Z,1032.44
2023-02-08T08:21:32.110Z,1032.47
2023-02-08T08:22:32.121Z,1032.47
2023-02-08T08:23:32.086Z,1032.52
2023-02-08T08:24:32.070Z,1032.52
2023-02-08T08:25:32.109Z,1032.50
2023-02-08T08:26:32.044Z,1032.48
2023-02-08T08:27:32.065Z,1032.43
2023-02-08T08:28:32.176Z,1032.38
2023-02-08T08:29:32.009Z,1032.43
2023-02-08T08:30:32.054Z,1032.42
2023-02-08T08:31:32.018Z,1032.40
2023-02-08T08:32:31.974Z,1032.40
2023-02-08T08:33:32.002Z,1032.43
2023-02-08T08:34:31.958Z,1032.36
2023-02-08T08:35:31.952Z,1032.45
2023-02-08T08:36:31.933Z,1032.48
2023-02-08T08:37:31.922Z,1032.49
2023-02-08T08:38:31.922Z,1032.46
2023-02-08T08:39:31.911Z,1032.47
2023-02-08T08:40:31.899Z,1032.43
2023-02-08T08:41:31.872Z,1032.45
2023-02-08T08:42:31.880Z,1032.42
2023-02-08T08:43:31.850Z,1032.42
2023-02-08T08:44:31.906Z,1032.43
2023-02-08T08:45:31.830Z,1032.41
2023-02-08T08:46:31.859Z,1032.42
2023-02-08T08:47:31.820Z,1032.36
2023-02-08T08:48:31.814Z,1032.41
2023-02-08T08:49:31.828Z,1032.43
2023-02-08T08:50:31.793Z,1032.41
2023-02-08T08:51:31.774Z,1032.39
2023-02-08T08:52:31.758Z,1032.35
2023-02-08T08:53:31.839Z,1032.38
2023-02-08T08:54:31.731Z,1032.42
2023-02-08T08:55:31.749Z,1032.46
2023-02-08T08:56:31.711Z,1032.40
2023-02-08T08:57:31.706Z,1032.39
2023-02-08T08:58:31.689Z,1032.37
2023-02-08T08:59:31.701Z,1032.37
2023-02-08T09:00:31.678Z,1032.41
2023-02-08T09:01:33.680Z,1032.41
2023-02-08T09:02:31.643Z,1032.40
2023-02-08T09:03:31.713Z,1032.49
2023-02-08T09:04:31.635Z,1032.42
2023-02-08T09:05:31.638Z,1032.46
2023-02-08T09:06:31.609Z,1032.38
2023-02-08T09:07:31.596Z,1032.41
2023-02-08T09:08:31.588Z,1032.38
2023-02-08T09:09:31.570Z,1032.36
2023-02-08T09:10:31.562Z,1032.35
2023-02-08T09:11:31.551Z,1032.35
2023-02-08T09:12:31.524Z,1032.37
2023-02-08T09:13:31.525Z,1032.36
2023-02-08T09:14:31.520Z,1032.35
2023-02-08T09:15:31.508Z,1032.42
2023-02-08T09:16:31.558Z,1032.37
2023-02-08T09:17:31.526Z,1032.41
2023-02-08T09:18:31.472Z,1032.40
2023-02-08T09:19:31.441Z,1032.42
2023-02-08T09:20:31.437Z,1032.43
2023-02-08T09:21:31.458Z,1032.45
2023-02-08T09:22:31.453Z,1032.42
2023-02-08T09:23:31.444Z,1032.43
2023-02-08T09:24:31.390Z,1032.44
2023-02-08T09:25:31.386Z,1032.44
2023-02-08T09:26:31.373Z,1032.47
2023-02-08T09:27:31.359Z,1032.43
2023-02-08T09:28:31.384Z,1032.44
2023-02-08T09:29:31.347Z,1032.46
2023-02-08T09:30:31.326Z,1032.38
2023-02-08T09:31:31.480Z,1032.46
2023-02-08T09:32:31.334Z,1032.43
2023-02-08T09:33:31.298Z,1032.49
2023-02-08T09:34:31.312Z,1032.43
2023-02-08T09:35:31.266Z,1032.45
2023-02-08T09:36:31.261Z,1032.48
2023-02-08T09:37:31.280Z,1032.35
2023-02-08T09:38:32.451Z,1032.40
2023-02-08T09:39:31.246Z,1032.40
2023-02-08T09:40:31.271Z,1032.42
2023-02-08T09:41:31.217Z,1032.41
2023-02-08T09:42:31.206Z,1032.38
2023-02-08T09:43:31.198Z,1032.39
2023-02-08T09:44:31.198Z,1032.41
2023-02-08T09:45:31.174Z,1032.34
2023-02-08T09:46:31.205Z,1032.35
2023-02-08T09:47:31.141Z,1032.36
2023-02-08T09:48:31.129Z,1032.30
2023-02-08T09:49:31.124Z,1032.29
2023-02-08T09:50:31.119Z,1032.26
2023-02-08T09:51:31.109Z,1032.29
2023-02-08T09:52:31.100Z,1032.29
2023-02-08T09:53:31.095Z,1032.31
2023-02-08T09:54:31.064Z,1032.31
2023-02-08T09:55:31.067Z,1032.29
2023-02-08T09:56:31.082Z,1032.28
2023-02-08T09:57:31.024Z,1032.27
2023-02-08T09:58:31.018Z,1032.26
2023-02-08T09:59:31.015Z,1032.24
2023-02-08T10:00:31.022Z,1032.26
2023-02-08T10:01:31.012Z,1032.27
2023-02-08T10:02:30.991Z,1032.23
2023-02-08T10:03:30.997Z,1032.21
2023-02-08T10:04:30.950Z,1032.23
2023-02-08T10:05:30.962Z,1032.27
2023-02-08T10:06:30.944Z,1032.29
2023-02-08T10:07:30.931Z,1032.28
2023-02-08T10:08:35.198Z,1032.28
2023-02-08T10:09:30.925Z,1032.21
2023-02-08T10:10:30.898Z,1032.22
2023-02-08T10:11:30.891Z,1032.21
2023-02-08T10:12:30.915Z,1032.20
2023-02-08T10:13:41.139Z,1032.22
2023-02-08T10:14:31.846Z,1032.20
2023-02-08T10:15:30.851Z,1032.17
2023-02-08T10:16:30.877Z,1032.20
2023-02-08T10:17:30.839Z,1032.19
2023-02-08T10:18:30.851Z,1032.23
2023-02-08T10:19:30.798Z,1032.15
2023-02-08T10:20:30.789Z,1032.18
2023-02-08T10:21:30.796Z,1032.17
2023-02-08T10:22:30.758Z,1032.11
2023-02-08T10:23:30.750Z,1032.15
2023-02-08T10:24:30.729Z,1032.15
2023-02-08T10:25:30.736Z,1032.19
2023-02-08T10:26:30.766Z,1032.13
2023-02-08T10:27:30.742Z,1032.13
2023-02-08T10:28:30.807Z,1032.09
2023-02-08T10:29:30.693Z,1032.14
2023-02-08T10:30:30.767Z,1032.13
2023-02-08T10:31:30.901Z,1032.12
2023-02-08T10:32:30.697Z,1032.12
2023-02-08T10:33:30.726Z,1032.10
2023-02-08T10:34:30.734Z,1032.09
2023-02-08T10:35:30.757Z,1032.11
2023-02-08T10:36:31.249Z,1032.10
2023-02-08T10:37:30.671Z,1032.11
2023-02-08T10:38:46.466Z,1032.11
2023-02-08T10:39:31.718Z,1032.07
2023-02-08T10:40:30.663Z,1032.04
2023-02-08T10:41:31.217Z,1032.09
2023-02-08T10:42:31.368Z,1032.09
2023-02-08T10:43:31.733Z,1032.08
2023-02-08T10:44:30.603Z,1032.07
2023-02-08T10:45:30.665Z,1032.06
2023-02-08T10:46:34.217Z,1032.08
2023-02-08T10:47:32.217Z,1032.04
2023-02-08T10:48:30.540Z,1032.02
2023-02-08T10:49:30.530Z,1031.95
2023-02-08T10:50:30.646Z,1031.98
2023-02-08T10:51:30.615Z,1031.99
2023-02-08T10:52:30.526Z,1031.96
2023-02-08T10:53:30.626Z,1032.00
2023-02-08T10:54:30.509Z,1031.98
2023-02-08T10:55:32.567Z,1032.00
2023-02-08T10:56:31.396Z,1031.96
2023-02-08T10:57:30.448Z,1031.97
2023-02-08T10:58:30.425Z,1031.99
2023-02-08T10:59:30.520Z,1031.96
2023-02-08T11:00:30.441Z,1031.94
2023-02-08T11:01:31.383Z,1031.90
2023-02-08T11:02:33.299Z,1031.87
2023-02-08T11:03:30.353Z,1031.86
2023-02-08T11:04:30.391Z,1031.89
2023-02-08T11:05:31.226Z,1031.82
2023-02-08T11:06:30.402Z,1031.82
2023-02-08T11:07:31.228Z,1031.86
2023-02-08T11:08:33.283Z,1031.82
2023-02-08T11:09:30.371Z,1031.82
2023-02-08T11:10:30.862Z,1031.85
2023-02-08T11:11:31.238Z,1031.83
2023-02-08T11:12:30.321Z,1031.86
2023-02-08T11:13:30.272Z,1031.87
2023-02-08T11:14:45.531Z,1031.87
2023-02-08T11:15:31.302Z,1031.84
2023-02-08T11:16:30.240Z,1031.83
2023-02-08T11:17:30.199Z,1031.87
2023-02-08T11:18:30.319Z,1031.90
2023-02-08T11:19:30.193Z,1031.88
2023-02-08T11:20:44.843Z,1031.88
2023-02-08T11:21:30.725Z,1031.85
2023-02-08T11:22:30.164Z,1031.80
2023-02-08T11:23:30.219Z,1031.77
2023-02-08T11:24:30.733Z,1031.81
2023-02-08T11:25:34.909Z,1031.79
2023-02-08T11:26:30.208Z,1031.80
2023-02-08T11:27:32.235Z,1031.79
2023-02-08T11:28:30.302Z,1031.80
2023-02-08T11:29:30.261Z,1031.80
2023-02-08T11:30:30.179Z,1031.77
2023-02-08T11:31:30.261Z,1031.77
2023-02-08T11:32:30.107Z,1031.79
2023-02-08T11:33:30.341Z,1031.75
2023-02-08T11:34:30.431Z,1031.74
2023-02-08T11:35:30.741Z,1031.71
2023-02-08T11:36:32.412Z,1031.67
2023-02-08T11:37:30.733Z,1031.64
2023-02-08T11:38:30.134Z,1031.62
2023-02-08T11:39:30.740Z,1031.61
2023-02-08T11:40:30.887Z,1031.57
2023-02-08T11:41:30.173Z,1031.56
2023-02-08T11:42:31.033Z,1031.55
2023-02-08T11:43:30.744Z,1031.54
2023-02-08T11:44:30.738Z,1031.45
2023-02-08T11:45:30.103Z,1031.43
2023-02-08T11:46:30.859Z,1031.41
2023-02-08T11:47:29.864Z,1031.38
2023-02-08T11:48:29.841Z,1031.43
2023-02-08T11:49:29.859Z,1031.42
2023-02-08T11:50:29.962Z,1031.38
2023-02-08T11:51:29.846Z,1031.43
2023-02-08T11:52:32.235Z,1031.40
2023-02-08T11:53:29.817Z,1031.39
2023-02-08T11:54:29.787Z,1031.36
2023-02-08T11:55:29.874Z,1031.33
2023-02-08T11:56:29.755Z,1031.32
2023-02-08T11:57:29.732Z,1031.29
2023-02-08T11:58:29.739Z,1031.32
2023-02-08T11:59:29.717Z,1031.30
2023-02-08T12:00:29.730Z,1031.30
2023-02-08T12:01:29.812Z,1031.27
2023-02-08T12:02:29.757Z,1031.29
2023-02-08T12:03:29.710Z,1031.31
2023-02-08T12:04:29.630Z,1031.25
2023-02-08T12:05:29.713Z,1031.30
2023-02-08T12:06:29.655Z,1031.23
2023-02-08T12:07:29.655Z,1031.22
2023-02-08T12:08:29.551Z,1031.28
2023-02-08T12:09:29.559Z,1031.24
2023-02-08T12:10:29.564Z,1031.23
2023-02-08T12:11:29.554Z,1031.20
2023-02-08T12:12:29.514Z,1031.14
2023-02-08T12:13:29.503Z,1031.09
2023-02-08T12:14:29.486Z,1031.11
2023-02-08T12:15:29.530Z,1031.02
2023-02-08T12:16:30.970Z,1031.06
2023-02-08T12:17:29.478Z,1031.03
2023-02-08T12:18:29.466Z,1031.02
2023-02-08T12:19:29.444Z,1031.06
2023-02-08T12:20:29.463Z,1031.00
2023-02-08T12:21:29.434Z,1030.98
2023-02-08T12:22:29.435Z,1031.00
2023-02-08T12:23:29.406Z,1031.00
2023-02-08T12:24:29.386Z,1031.01
2023-02-08T12:25:29.365Z,1030.97
2023-02-08T12:26:29.385Z,1030.97
2023-02-08T12:27:29.366Z,1030.93
2023-02-08T12:28:29.336Z,1030.90
2023-02-08T12:29:45.579Z,1030.81
2023-02-08T12:30:30.418Z,1030.84
2023-02-08T12:31:29.382Z,1030.88
2023-02-08T12:32:29.300Z,1030.88
2023-02-08T12:33:29.631Z,1030.83
2023-02-08T12:34:30.268Z,1030.80
2023-02-08T12:35:40.220Z,1030.79
2023-02-08T12:36:30.367Z,1030.75
2023-02-08T12:37:29.229Z,1030.77
2023-02-08T12:38:29.214Z,1030.70
2023-02-08T12:39:29.217Z,1030.76
2023-02-08T12:40:29.210Z,1030.72
2023-02-08T12:41:29.220Z,1030.71
2023-02-08T12:42:29.201Z,1030.69
2023-02-08T12:43:29.163Z,1030.70
2023-02-08T12:44:29.158Z,1030.65
2023-02-08T12:45:29.152Z,1030.69
2023-02-08T12:46:29.194Z,1030.67
2023-02-08T12:47:29.132Z,1030.61
2023-02-08T12:48:29.131Z,1030.61
2023-02-08T12:49:29.127Z,1030.61
2023-02-08T12:50:29.093Z,1030.62
2023-02-08T12:51:29.171Z,1030.61
2023-02-08T12:52:29.084Z,1030.62
2023-02-08T12:53:29.058Z,1030.58
2023-02-08T12:54:29.046Z,1030.58
2023-02-08T12:55:29.046Z,1030.55
2023-02-08T12:56:29.008Z,1030.56
2023-02-08T12:57:31.621Z,1030.51
2023-02-08T12:58:29.029Z,1030.51
2023-02-08T12:59:29.008Z,1030.51
2023-02-08T13:00:28.974Z,1030.55
2023-02-08T13:01:29.008Z,1030.54
2023-02-08T13:02:28.952Z,1030.51
2023-02-08T13:03:31.597Z,1030.50
2023-02-08T13:04:28.939Z,1030.49
2023-02-08T13:05:28.967Z,1030.47
2023-02-08T13:06:28.909Z,1030.53
2023-02-08T13:07:28.904Z,1030.52
2023-02-08T13:08:28.878Z,1030.45
2023-02-08T13:09:31.396Z,1030.48
2023-02-08T13:10:28.872Z,1030.42
2023-02-08T13:11:28.844Z,1030.41
2023-02-08T13:12:28.829Z,1030.50
2023-02-08T13:13:28.823Z,1030.49
2023-02-08T13:14:28.819Z,1030.47
2023-02-08T13:15:31.229Z,1030.39
2023-02-08T13:16:28.885Z,1030.36
2023-02-08T13:17:28.789Z,1030.37
2023-02-08T13:18:28.774Z,1030.32
2023-02-08T13:19:28.755Z,1030.39
2023-02-08T13:20:30.896Z,1030.35
2023-02-08T13:21:28.781Z,1030.34
2023-02-08T13:22:28.718Z,1030.33
2023-02-08T13:23:28.724Z,1030.35
2023-02-08T13:24:28.737Z,1030.32
2023-02-08T13:25:28.700Z,1030.26
2023-02-08T13:26:28.685Z,1030.29
2023-02-08T13:27:28.684Z,1030.18
2023-02-08T13:28:28.742Z,1030.24
2023-02-08T13:29:28.712Z,1030.18
2023-02-08T13:30:28.694Z,1030.12
2023-02-08T13:31:28.812Z,1030.17
2023-02-08T13:32:28.619Z,1030.15
2023-02-08T13:33:28.598Z,1030.10
2023-02-08T13:34:28.597Z,1030.09
2023-02-08T13:35:29.290Z,1030.07
2023-02-08T13:36:28.590Z,1030.06
2023-02-08T13:37:31.165Z,1030.06
2023-02-08T13:38:28.577Z,1030.09
2023-02-08T13:39:28.554Z,1030.06
2023-02-08T13:40:28.724Z,1030.04
2023-02-08T13:41:28.530Z,1030.00
2023-02-08T13:42:28.496Z,1030.05
2023-02-08T13:43:35.231Z,1030.02
2023-02-08T13:44:29.477Z,1030.00
2023-02-08T13:45:28.479Z,1029.99
2023-02-08T13:46:28.492Z,1029.99
2023-02-08T13:47:28.471Z,1029.97
2023-02-08T13:48:28.444Z,1029.98
2023-02-08T13:49:28.453Z,1029.94
2023-02-08T13:50:29.332Z,1029.90
2023-02-08T13:51:28.416Z,1029.94
2023-02-08T13:52:41.897Z,1029.85
2023-02-08T13:53:29.457Z,1029.89
2023-02-08T13:54:28.383Z,1029.88
2023-02-08T13:55:28.384Z,1029.89
2023-02-08T13:56:28.340Z,1029.87
2023-02-08T13:57:28.356Z,1029.84
2023-02-08T13:58:28.336Z,1029.85
2023-02-08T13:59:28.324Z,1029.85
2023-02-08T14:00:28.331Z,1029.82
2023-02-08T14:01:28.380Z,1029.82
2023-02-08T14:02:28.376Z,1029.81
2023-02-08T14:03:28.291Z,1029.79
2023-02-08T14:04:28.251Z,1029.79
2023-02-08T14:05:28.281Z,1029.81
2023-02-08T14:06:28.242Z,1029.78
2023-02-08T14:07:28.233Z,1029.76
2023-02-08T14:08:28.214Z,1029.79
2023-02-08T14:09:28.253Z,1029.74
2023-02-08T14:10:28.199Z,1029.73
2023-02-08T14:11:28.196Z,1029.75
2023-02-08T14:12:28.207Z,1029.73
2023-02-08T14:13:28.169Z,1029.74
2023-02-08T14:14:28.142Z,1029.69
2023-02-08T14:15:28.144Z,1029.65
2023-02-08T14:16:28.204Z,1029.68
2023-02-08T14:17:28.121Z,1029.66
2023-02-08T14:18:28.111Z,1029.62
2023-02-08T14:19:28.092Z,1029.61
2023-02-08T14:20:28.071Z,1029.63
2023-02-08T14:21:28.066Z,1029.59
2023-02-08T14:22:28.080Z,1029.59
2023-02-08T14:23:28.037Z,1029.62
2023-02-08T14:24:28.043Z,1029.56
2023-02-08T14:25:28.055Z,1029.56
2023-02-08T14:26:28.012Z,1029.58
2023-02-08T14:27:28.011Z,1029.58
2023-02-08T14:28:28.096Z,1029.57
2023-02-08T14:29:28.004Z,1029.57
2023-02-08T14:30:27.972Z,1029.53
2023-02-08T14:31:28.088Z,1029.53
2023-02-08T14:32:27.986Z,1029.52
2023-02-08T14:33:27.940Z,1029.51
2023-02-08T14:34:27.930Z,1029.50
2023-02-08T14:35:27.941Z,1029.52
2023-02-08T14:36:27.894Z,1029.52
2023-02-08T14:37:27.900Z,1029.50
2023-02-08T14:38:27.884Z,1029.49
2023-02-08T14:39:27.871Z,1029.48
2023-02-08T14:40:27.859Z,1029.47
2023-02-08T14:41:27.875Z,1029.43
2023-02-08T14:42:27.842Z,1029.40
2023-02-08T14:43:27.832Z,1029.41
2023-02-08T14:44:27.823Z,1029.43
2023-02-08T14:45:27.789Z,1029.38
2023-02-08T14:46:27.834Z,1029.39
2023-02-08T14:47:27.806Z,1029.38
2023-02-08T14:48:27.769Z,1029.37
2023-02-08T14:49:27.789Z,1029.38
2023-02-08T14:50:27.755Z,1029.39
2023-02-08T14:51:27.727Z,1029.42
2023-02-08T14:52:27.737Z,1029.36
2023-02-08T14:53:27.700Z,1029.42
2023-02-08T14:54:27.718Z,1029.34
2023-02-08T14:55:27.721Z,1029.33
2023-02-08T14:56:27.682Z,1029.38
2023-02-08T14:57:27.697Z,1029.33
2023-02-08T14:58:27.645Z,1029.33
2023-02-08T14:59:27.644Z,1029.28
2023-02-08T15:00:27.634Z,1029.29
2023-02-08T15:01:27.639Z,1029.27
2023-02-08T15:02:27.602Z,1029.31
2023-02-08T15:03:27.613Z,1029.31
2023-02-08T15:04:27.620Z,1029.30
2023-02-08T15:05:27.588Z,1029.27
2023-02-08T15:06:27.556Z,1029.28
2023-02-08T15:07:27.571Z,1029.29
2023-02-08T15:08:27.540Z,1029.26
2023-02-08T15:09:27.516Z,1029.25
2023-02-08T15:10:27.524Z,1029.26
2023-02-08T15:11:27.494Z,1029.28
2023-02-08T15:12:27.506Z,1029.29
2023-02-08T15:13:27.512Z,1029.25
2023-02-08T15:14:27.476Z,1029.23
2023-02-08T15:15:27.455Z,1029.29
2023-02-08T15:16:27.455Z,1029.24
2023-02-08T15:17:27.426Z,1029.21
2023-02-08T15:18:27.456Z,1029.24
2023-02-08T15:19:27.418Z,1029.18
2023-02-08T15:20:27.417Z,1029.18
2023-02-08T15:21:27.410Z,1029.19
2023-02-08T15:22:27.387Z,1029.15
2023-02-08T15:23:27.368Z,1029.15
2023-02-08T15:24:27.373Z,1029.17
2023-02-08T15:25:27.346Z,1029.23
2023-02-08T15:26:27.348Z,1029.24
2023-02-08T15:27:27.327Z,1029.24
2023-02-08T15:28:27.401Z,1029.25
2023-02-08T15:29:39.179Z,1029.23
2023-02-08T15:30:28.318Z,1029.17
2023-02-08T15:31:27.341Z,1029.24
2023-02-08T15:32:27.280Z,1029.17
2023-02-08T15:33:27.261Z,1029.18
2023-02-08T15:34:27.257Z,1029.18
2023-02-08T15:35:27.228Z,1029.17
2023-02-08T15:36:27.248Z,1029.16
2023-02-08T15:37:27.218Z,1029.24
2023-02-08T15:38:27.208Z,1029.21
2023-02-08T15:39:27.193Z,1029.19
2023-02-08T15:40:27.186Z,1029.17
2023-02-08T15:41:27.177Z,1029.17
2023-02-08T15:42:27.163Z,1029.15
2023-02-08T15:43:27.160Z,1029.10
2023-02-08T15:44:27.140Z,1029.14
2023-02-08T15:45:27.150Z,1029.10
2023-02-08T15:46:27.120Z,1029.15
2023-02-08T15:47:27.123Z,1029.09
2023-02-08T15:48:27.106Z,1029.10
2023-02-08T15:49:27.081Z,1029.11
2023-02-08T15:50:27.057Z,1029.11
2023-02-08T15:51:27.058Z,1029.09
2023-02-08T15:52:27.071Z,1029.06
2023-02-08T15:53:27.035Z,1029.08
2023-02-08T15:54:27.014Z,1029.10
2023-02-08T15:55:27.000Z,1029.00
2023-02-08T15:56:36.399Z,1029.02
2023-02-08T15:57:27.998Z,1029.04
2023-02-08T15:58:26.984Z,1029.01
2023-02-08T15:59:26.969Z,1029.06
2023-02-08T16:00:26.999Z,1029.03
2023-02-08T16:01:27.026Z,1029.02
2023-02-08T16:02:26.937Z,1029.01
2023-02-08T16:03:27.021Z,1029.01
2023-02-08T16:04:26.906Z,1029.00
2023-02-08T16:05:26.894Z,1028.99
2023-02-08T16:06:26.893Z,1028.95
2023-02-08T16:07:26.876Z,1028.97
2023-02-08T16:08:28.180Z,1028.95
2023-02-08T16:09:26.849Z,1028.93
2023-02-08T16:10:26.837Z,1028.96
2023-02-08T16:11:26.818Z,1028.96
2023-02-08T16:12:26.856Z,1028.93
2023-02-08T16:13:26.802Z,1028.89
2023-02-08T16:14:29.305Z,1028.91
2023-02-08T16:15:26.786Z,1028.84
2023-02-08T16:16:26.864Z,1028.83
2023-02-08T16:17:26.802Z,1028.80
2023-02-08T16:18:26.783Z,1028.80
2023-02-08T16:19:26.776Z,1028.78
2023-02-08T16:20:30.159Z,1028.80
2023-02-08T16:21:27.719Z,1028.77
2023-02-08T16:22:26.749Z,1028.79
2023-02-08T16:23:26.715Z,1028.75
2023-02-08T16:24:26.723Z,1028.75
2023-02-08T16:25:26.682Z,1028.75
2023-02-08T16:26:28.552Z,1028.75
2023-02-08T16:27:26.680Z,1028.70
2023-02-08T16:28:26.740Z,1028.73
2023-02-08T16:29:26.650Z,1028.73
2023-02-08T16:30:26.842Z,1028.74
2023-02-08T16:31:26.824Z,1028.70
2023-02-08T16:32:26.608Z,1028.72
2023-02-08T16:33:26.610Z,1028.71
2023-02-08T16:34:26.583Z,1028.71
2023-02-08T16:35:26.572Z,1028.74
2023-02-08T16:36:26.580Z,1028.74
2023-02-08T16:37:26.556Z,1028.76
2023-02-08T16:38:26.543Z,1028.77
2023-02-08T16:39:26.529Z,1028.76
2023-02-08T16:40:26.511Z,1028.79
2023-02-08T16:41:26.529Z,1028.77
2023-02-08T16:42:28.505Z,1028.79
2023-02-08T16:43:26.506Z,1028.77
2023-02-08T16:44:26.479Z,1028.80
2023-02-08T16:45:26.475Z,1028.81
2023-02-08T16:46:26.507Z,1028.79
2023-02-08T16:47:26.430Z,1028.77
2023-02-08T16:48:28.651Z,1028.78
2023-02-08T16:49:27.358Z,1028.75
2023-02-08T16:50:26.417Z,1028.76
2023-02-08T16:51:26.422Z,1028.78
2023-02-08T16:52:26.376Z,1028.78
2023-02-08T16:53:40.238Z,1028.80
2023-02-08T16:54:28.502Z,1028.71
2023-02-08T16:55:26.341Z,1028.77
2023-02-08T16:56:26.347Z,1028.77
2023-02-08T16:57:26.325Z,1028.72
2023-02-08T16:58:26.318Z,1028.71
2023-02-08T16:59:26.331Z,1028.75
2023-02-08T17:00:26.302Z,1028.72
2023-02-08T17:01:26.492Z,1028.75
2023-02-08T17:02:26.287Z,1028.76
2023-02-08T17:03:26.289Z,1028.72
2023-02-08T17:04:27.334Z,1028.76
2023-02-08T17:05:26.262Z,1028.70
2023-02-08T17:06:26.227Z,1028.71
2023-02-08T17:07:26.213Z,1028.67
2023-02-08T17:08:26.342Z,1028.66
2023-02-08T17:09:27.193Z,1028.66
2023-02-08T17:10:28.653Z,1028.65
2023-02-08T17:11:26.172Z,1028.62
2023-02-08T17:12:26.206Z,1028.65
2023-02-08T17:13:26.171Z,1028.62
2023-02-08T17:14:26.125Z,1028.62
2023-02-08T17:15:26.154Z,1028.57
2023-02-08T17:16:26.101Z,1028.57